Chagrin Township, Ohio
Current Conditions -  °F | °C
As of 10:45 PM on Monday 26 Jan 2015 (Local Time) from KCGF Reporting Station
Light Snow Light Snow  
Wind Chill: 12°   Ceiling: 600
Heat Index: 23°   Visibility: 7mi
Dew Point: 18°   Wind: 10mph
Humidity: 80%   Direction: 20°NNE
Pressure: 29.92"   Gusts: NA
Location:  41.4475°N, 81.4018°W
Report Text: KCGF 270345Z 02009KT 7SM -SN BKN006 OVC010 M05/M08 A2992
Loading
Personal Weather Stations






























Interactive Weather Map New forecast layout! Learn more

10-Day Weather Forecast

Advertisements
Track Severe Weather on mobile